TimeEST,TemperatureF,Dew PointF,Humidity,Sea Level PressureIn,VisibilityMPH,Wind Direction,Wind SpeedMPH,Gust SpeedMPH,PrecipitationIn,Events,Conditions,WindDirDegrees,DateUTC
12:53 AM,42.1,33.1,70,30.35,10.0,Calm,Calm,-,N/A,,Clear,0,2012-11-11 05:53:00
1:53 AM,39.0,33.1,79,30.35,10.0,Calm,Calm,-,N/A,,Clear,0,2012-11-11 06:53:00
2:53 AM,37.9,32.0,79,30.36,10.0,Calm,Calm,-,N/A,,Clear,0,2012-11-11 07:53:00
3:53 AM,36.0,32.0,86,30.36,10.0,SSW,3.5,-,N/A,,Clear,210,2012-11-11 08:53:00
4:53 AM,35.1,32.0,89,30.38,10.0,Calm,Calm,-,N/A,,Clear,0,2012-11-11 09:53:00
5:53 AM,35.1,30.9,85,30.41,10.0,Calm,Calm,-,N/A,,Clear,0,2012-11-11 10:53:00
6:53 AM,34.0,30.9,89,30.43,10.0,SW,3.5,-,N/A,,Clear,230,2012-11-11 11:53:00
7:53 AM,37.0,33.1,86,30.45,10.0,Calm,Calm,-,N/A,,Clear,0,2012-11-11 12:53:00
8:53 AM,48.0,37.9,68,30.46,10.0,Calm,Calm,-,N/A,,Clear,0,2012-11-11 13:53:00
9:53 AM,55.9,37.9,51,30.46,10.0,Calm,Calm,-,N/A,,Clear,0,2012-11-11 14:53:00
10:53 AM,63.0,39.0,41,30.46,10.0,WSW,3.5,-,N/A,,Clear,240,2012-11-11 15:53:00
12:53 PM,73.0,37.0,27,30.40,10.0,SSW,8.1,-,N/A,,Clear,210,2012-11-11 17:53:00
1:53 PM,75.0,39.9,28,30.39,10.0,South,8.1,-,N/A,,Clear,190,2012-11-11 18:53:00
2:53 PM,73.0,43.0,34,30.38,10.0,South,8.1,17.3,N/A,,Clear,180,2012-11-11 19:53:00
3:53 PM,73.0,46.0,38,30.38,10.0,SSW,6.9,17.3,N/A,,Clear,210,2012-11-11 20:53:00
4:53 PM,70.0,46.9,44,30.38,10.0,SSW,5.8,-,N/A,,Clear,210,2012-11-11 21:53:00
5:53 PM,63.0,46.9,56,30.40,10.0,Calm,Calm,-,N/A,,Clear,0,2012-11-11 22:53:00
6:53 PM,63.0,46.9,56,30.41,10.0,Calm,Calm,-,N/A,,Clear,0,2012-11-11 23:53:00
7:53 PM,64.0,48.0,56,30.42,10.0,Calm,Calm,-,N/A,,Clear,0,2012-11-12 00:53:00
8:53 PM,64.0,48.9,58,30.42,10.0,Variable,3.5,-,N/A,,Clear,0,2012-11-12 01:53:00
9:53 PM,57.0,46.9,69,30.42,10.0,SSW,3.5,-,N/A,,Clear,210,2012-11-12 02:53:00
10:53 PM,59.0,48.9,69,30.41,10.0,South,3.5,-,N/A,,Clear,180,2012-11-12 03:53:00
11:53 PM,57.9,50.0,75,30.40,10.0,Calm,Calm,-,N/A,,Clear,0,2012-11-12 04:53:00